Time;durP1;ratioP1;P1;durP2;ratioP2;P2;SDS_P1;SDS_P2;PMS_P1;PMS_P2;Temp;Humidity;BMP_temperature;BMP_pressure;BME280_temperature;BME280_humidity;BME280_pressure;Samples;Min_cycle;Max_cycle;Signal;HPM_P1;HPM_P2
2022/04/22 00:00:30;;;;;;;6.57;5.50;;;10.80;90.80;;;;;;4995721;28;20895;-51
2022/04/22 00:02:57;;;;;;;6.47;5.80;;;10.80;90.60;;;;;;4996061;28;20484;-51
2022/04/22 00:05:24;;;;;;;6.00;5.50;;;10.80;90.80;;;;;;4995972;28;20841;-51
2022/04/22 00:07:52;;;;;;;8.83;6.20;;;10.60;91.00;;;;;;4995803;28;20472;-51
2022/04/22 00:10:19;;;;;;;7.10;6.17;;;10.50;91.80;;;;;;4995896;28;20447;-50
2022/04/22 00:12:47;;;;;;;6.77;6.10;;;10.50;92.10;;;;;;4995741;28;20525;-50
2022/04/22 00:15:15;;;;;;;6.50;5.50;;;10.50;92.20;;;;;;4995747;28;20510;-51
2022/04/22 00:17:43;;;;;;;6.60;6.10;;;10.30;92.30;;;;;;4995465;28;20486;-51
2022/04/22 00:20:12;;;;;;;6.20;5.60;;;10.30;93.00;;;;;;4995379;28;20935;-51
2022/04/22 00:22:40;;;;;;;6.03;5.43;;;10.30;93.10;;;;;;4995572;28;20483;-51
2022/04/22 00:25:12;;;;;;;6.33;5.43;;;10.20;93.40;;;;;;4995595;28;20448;-51
2022/04/22 00:27:41;;;;;;;6.90;6.20;;;10.20;93.60;;;;;;4995620;28;20468;-51
2022/04/22 00:30:13;;;;;;;6.57;5.87;;;10.20;93.80;;;;;;4995089;28;20452;-51
2022/04/22 00:32:41;;;;;;;6.33;5.80;;;10.20;94.20;;;;;;4995017;28;20460;-51
2022/04/22 00:35:09;;;;;;;8.13;6.47;;;10.10;94.10;;;;;;4995251;28;20432;-50
2022/04/22 00:37:36;;;;;;;7.63;6.83;;;10.00;94.30;;;;;;4995275;28;20472;-51
2022/04/22 00:40:04;;;;;;;7.67;6.37;;;10.00;94.60;;;;;;4995012;28;20452;-50
2022/04/22 00:42:31;;;;;;;7.13;6.43;;;9.90;95.30;;;;;;4995285;28;20815;-50
2022/04/22 00:44:59;;;;;;;6.67;6.07;;;10.00;94.70;;;;;;4994991;28;20452;-51
2022/04/22 00:47:26;;;;;;;6.33;5.83;;;10.10;95.70;;;;;;4994820;28;20458;-51
2022/04/22 00:49:55;;;;;;;7.10;6.40;;;10.10;95.20;;;;;;4994897;28;20965;-51
2022/04/22 00:52:22;;;;;;;10.20;6.80;;;10.20;95.60;;;;;;4994866;28;20815;-51
2022/04/22 00:54:50;;;;;;;10.60;6.87;;;10.20;95.60;;;;;;4994645;28;20538;-50
2022/04/22 00:57:19;;;;;;;7.37;6.50;;;10.20;95.90;;;;;;4994641;28;20448;-51
2022/04/22 00:59:47;;;;;;;7.10;6.30;;;10.10;95.30;;;;;;4994729;28;20456;-51
2022/04/22 01:02:14;;;;;;;7.00;6.30;;;10.10;95.80;;;;;;4994882;28;20452;-51
2022/04/22 01:10:13;;;;;;;6.90;6.30;;;10.00;95.60;;;;;;4994640;28;20467;-51
2022/04/22 01:12:40;;;;;;;8.23;6.47;;;10.10;95.60;;;;;;4994815;28;20458;-51
2022/04/22 01:15:08;;;;;;;7.83;6.70;;;10.10;95.90;;;;;;4994632;28;20448;-50
2022/04/22 01:17:35;;;;;;;7.10;6.37;;;10.10;95.60;;;;;;4994282;28;20854;-51
2022/04/22 01:20:03;;;;;;;5.93;5.33;;;10.20;95.80;;;;;;4994415;28;21017;-51
2022/04/22 01:22:32;;;;;;;8.10;6.37;;;10.20;96.00;;;;;;4994276;28;20931;-51
2022/04/22 01:25:00;;;;;;;7.77;6.93;;;10.10;96.10;;;;;;4994318;28;20495;-51
2022/04/22 01:27:29;;;;;;;8.40;7.60;;;9.90;97.10;;;;;;4994262;28;21007;-51
2022/04/22 01:29:58;;;;;;;8.07;7.37;;;9.80;97.40;;;;;;4994544;28;20487;-50
2022/04/22 01:32:27;;;;;;;6.97;6.20;;;9.70;97.70;;;;;;4994216;28;20919;-51
2022/04/22 01:34:54;;;;;;;8.83;6.77;;;9.70;98.10;;;;;;4993910;28;20526;-51
2022/04/22 01:37:21;;;;;;;8.13;7.33;;;9.70;98.40;;;;;;4994318;28;20460;-51
2022/04/22 01:39:50;;;;;;;7.90;7.10;;;9.70;98.20;;;;;;4994338;28;20456;-51
2022/04/22 01:42:19;;;;;;;7.90;6.90;;;9.70;98.50;;;;;;4993256;28;20939;-51
2022/04/22 01:44:46;;;;;;;8.83;7.07;;;9.60;98.50;;;;;;4994286;28;20510;-51
2022/04/22 01:47:14;;;;;;;9.17;7.60;;;9.60;98.70;;;;;;4993864;28;20959;-50
2022/04/22 01:49:42;;;;;;;10.20;7.60;;;9.70;99.00;;;;;;4994241;28;20444;-50
2022/04/22 01:52:09;;;;;;;9.57;7.80;;;9.70;99.00;;;;;;4993993;28;20447;-50
2022/04/22 01:54:36;;;;;;;7.93;7.00;;;9.70;98.80;;;;;;4993868;28;20808;-51
2022/04/22 01:57:05;;;;;;;7.90;7.20;;;9.60;98.90;;;;;;4994314;28;20538;-50
2022/04/22 01:59:32;;;;;;;7.50;6.80;;;9.70;99.30;;;;;;4994166;28;20478;-51
2022/04/22 02:02:00;;;;;;;9.10;7.83;;;9.70;99.50;;;;;;4993842;28;20448;-51
2022/04/22 02:04:27;;;;;;;8.57;7.73;;;9.80;99.70;;;;;;4993988;28;20484;-51
2022/04/22 02:06:54;;;;;;;8.27;7.40;;;9.70;99.10;;;;;;4993630;28;20551;-51
2022/04/22 02:09:21;;;;;;;8.30;7.50;;;9.70;99.00;;;;;;4993915;28;20472;-51
2022/04/22 02:11:48;;;;;;;10.30;9.20;;;9.60;99.40;;;;;;4994019;28;20449;-50
2022/04/22 02:14:17;;;;;;;9.77;8.77;;;9.50;99.60;;;;;;4994031;28;20787;-50
2022/04/22 02:16:44;;;;;;;8.87;7.97;;;9.40;99.60;;;;;;4993756;28;20432;-51
2022/04/22 02:19:11;;;;;;;9.93;8.40;;;9.40;99.70;;;;;;4993652;28;20460;-50
2022/04/22 02:21:38;;;;;;;9.30;8.10;;;9.40;99.90;;;;;;4993793;28;20452;-51
2022/04/22 02:24:06;;;;;;;13.53;9.60;;;9.30;99.90;;;;;;4993614;28;21016;-51
2022/04/22 02:28:31;;;;;;;9.30;8.40;;;9.40;99.90;;;;;;4993581;28;20637;-51
2022/04/22 02:29:22;;;;;;;10.90;7.90;;;9.30;99.90;;;;;;4993560;28;20515;-50
2022/04/22 02:31:52;;;;;;;9.60;8.60;;;9.30;99.90;;;;;;4993835;28;20452;-50
2022/04/22 02:34:20;;;;;;;10.03;8.70;;;9.30;99.90;;;;;;4993778;28;20563;-51
2022/04/22 02:36:47;;;;;;;9.67;8.43;;;9.30;99.90;;;;;;4993535;28;20961;-51
2022/04/22 02:39:14;;;;;;;9.97;8.70;;;9.30;99.90;;;;;;4993415;28;20476;-50
2022/04/22 02:47:15;;;;;;;9.80;8.80;;;9.20;99.90;;;;;;4993555;28;20427;-50
2022/04/22 02:49:44;;;;;;;11.40;9.37;;;9.10;99.90;;;;;;4993770;28;20468;-50
2022/04/22 02:52:11;;;;;;;11.23;9.10;;;9.10;99.90;;;;;;4993906;28;20456;-50
2022/04/22 02:54:38;;;;;;;11.13;9.33;;;9.00;99.90;;;;;;4997025;28;21013;-50
2022/04/22 02:57:06;;;;;;;13.47;10.73;;;8.90;99.90;;;;;;4997504;28;20467;-50
2022/04/22 02:59:37;;;;;;;16.70;10.80;;;8.90;99.90;;;;;;4996879;28;20531;-50
2022/04/22 03:02:04;;;;;;;14.80;9.97;;;9.00;99.90;;;;;;4997169;28;20482;-51
2022/04/22 03:04:32;;;;;;;12.27;9.40;;;8.90;99.90;;;;;;4997155;28;20502;-51
2022/04/22 03:06:59;;;;;;;10.80;9.70;;;8.90;99.90;;;;;;4996983;28;20455;-51
2022/04/22 03:09:26;;;;;;;10.93;9.73;;;8.90;99.90;;;;;;4996949;28;20467;-51
2022/04/22 03:11:53;;;;;;;12.00;10.10;;;8.90;99.90;;;;;;4997075;28;20452;-51
2022/04/22 03:14:20;;;;;;;12.03;9.80;;;8.90;99.90;;;;;;4996655;28;20447;-50
2022/04/22 03:16:49;;;;;;;10.87;9.50;;;9.00;99.90;;;;;;4996815;28;20448;-51
2022/04/22 03:19:16;;;;;;;11.50;10.30;;;8.90;99.90;;;;;;4996580;28;20994;-50
2022/04/22 03:21:43;;;;;;;10.50;9.50;;;8.80;99.90;;;;;;4996523;28;20938;-50
2022/04/22 03:24:11;;;;;;;12.40;11.10;;;8.80;99.90;;;;;;4996377;28;21013;-50
2022/04/22 03:26:38;;;;;;;12.70;11.40;;;8.70;99.90;;;;;;4997427;28;20460;-51
2022/04/22 03:29:05;;;;;;;10.77;9.60;;;8.60;99.90;;;;;;4996504;28;20480;-50
2022/04/22 03:31:32;;;;;;;15.57;11.43;;;8.60;99.90;;;;;;4996668;28;20447;-51
2022/04/22 03:34:01;;;;;;;12.70;10.77;;;8.60;99.90;;;;;;4996220;28;20978;-51
2022/04/22 03:36:28;;;;;;;14.10;12.07;;;8.50;99.90;;;;;;4996316;28;20452;-51
2022/04/22 03:38:55;;;;;;;12.33;11.00;;;8.60;99.90;;;;;;4996072;28;20476;-50
2022/04/22 03:41:22;;;;;;;15.97;11.87;;;8.60;99.90;;;;;;4996452;28;20808;-50
2022/04/22 03:43:49;;;;;;;13.37;11.43;;;8.50;99.90;;;;;;4996127;28;21025;-50
2022/04/22 03:46:17;;;;;;;15.50;12.00;;;8.50;99.90;;;;;;4996330;28;20508;-50
2022/04/22 03:48:44;;;;;;;13.20;11.70;;;8.60;99.90;;;;;;4995900;28;20476;-50
2022/04/22 03:51:12;;;;;;;13.47;12.00;;;8.60;99.90;;;;;;4996059;28;20985;-50
2022/04/22 03:53:41;;;;;;;13.10;11.77;;;8.50;99.90;;;;;;4996210;28;20454;-51
2022/04/22 03:58:52;;;;;;;14.67;12.73;;;8.40;99.90;;;;;;4995897;28;20450;-51
2022/04/22 04:01:19;;;;;;;17.00;13.90;;;8.30;99.90;;;;;;4996149;28;20448;-50
2022/04/22 04:03:46;;;;;;;16.80;14.03;;;8.30;99.90;;;;;;4994969;28;20491;-50
2022/04/22 04:06:15;;;;;;;14.33;12.80;;;8.40;99.90;;;;;;4995958;28;20448;-50
2022/04/22 04:15:57;;;;;;;20.20;13.00;;;8.40;99.90;;;;;;4995823;28;20472;-51
2022/04/22 04:16:58;;;;;;;16.70;13.47;;;8.40;99.90;;;;;;4995642;28;20543;-50
2022/04/22 04:24:55;;;;;;;18.53;14.83;;;8.30;99.90;;;;;;4995257;28;20550;-50
2022/04/22 04:27:22;;;;;;;18.07;14.33;;;8.30;99.90;;;;;;4995572;28;20432;-50
2022/04/22 04:29:49;;;;;;;17.13;14.33;;;8.30;99.90;;;;;;4995644;28;20452;-50
2022/04/22 04:32:17;;;;;;;16.63;13.47;;;8.40;99.90;;;;;;4995455;28;20451;-50
2022/04/22 04:34:45;;;;;;;16.20;14.10;;;8.40;99.90;;;;;;4995001;28;20487;-50
2022/04/22 04:37:14;;;;;;;17.27;13.27;;;8.30;99.90;;;;;;4995025;28;20977;-51
2022/04/22 04:39:41;;;;;;;20.27;14.50;;;8.20;99.90;;;;;;4995239;28;20429;-51
2022/04/22 04:42:09;;;;;;;15.87;13.60;;;8.30;99.90;;;;;;4994978;28;20970;-50
2022/04/22 04:44:37;;;;;;;17.67;13.60;;;8.20;99.90;;;;;;4994845;28;20484;-50
2022/04/22 04:47:05;;;;;;;16.43;14.73;;;8.20;99.90;;;;;;4995274;28;20448;-50
2022/04/22 04:49:32;;;;;;;19.43;15.63;;;8.20;99.90;;;;;;4994810;28;20476;-51
2022/04/22 04:51:59;;;;;;;15.30;13.43;;;8.30;99.90;;;;;;4994792;28;20484;-51
2022/04/22 04:54:27;;;;;;;18.47;15.77;;;8.20;99.90;;;;;;4994836;28;20809;-51
2022/04/22 04:56:55;;;;;;;19.13;14.87;;;8.40;99.90;;;;;;4995163;28;20468;-50
2022/04/22 04:59:22;;;;;;;18.47;14.50;;;8.40;99.90;;;;;;4994841;28;20474;-50
2022/04/22 05:01:49;;;;;;;19.00;14.93;;;8.40;99.90;;;;;;4994657;28;20454;-50
2022/04/22 05:04:17;;;;;;;16.80;14.17;;;8.30;99.90;;;;;;4994748;28;21110;-50
2022/04/22 05:06:44;;;;;;;20.33;15.20;;;8.50;99.90;;;;;;4994870;28;20510;-51
2022/04/22 05:09:11;;;;;;;19.40;15.47;;;8.40;99.90;;;;;;4994414;28;20567;-52
2022/04/22 05:11:40;;;;;;;21.63;15.77;;;8.40;99.90;;;;;;4994731;28;20451;-52
2022/04/22 05:14:07;;;;;;;18.83;16.40;;;8.30;99.90;;;;;;4994310;28;20762;-52
2022/04/22 05:16:34;;;;;;;17.20;14.47;;;8.30;99.90;;;;;;4994426;28;20499;-52
2022/04/22 05:19:01;;;;;;;19.27;17.17;;;8.30;99.90;;;;;;4994587;28;20959;-52
2022/04/22 05:21:29;;;;;;;18.53;15.57;;;8.40;99.90;;;;;;4994256;28;21026;-51
2022/04/22 05:23:56;;;;;;;19.77;16.03;;;8.40;99.90;;;;;;4994163;28;20539;-52
2022/04/22 05:26:24;;;;;;;18.10;15.40;;;8.40;99.90;;;;;;4994095;28;20459;-51
2022/04/22 05:28:52;;;;;;;20.67;17.87;;;8.40;99.90;;;;;;4994025;28;20877;-50
2022/04/22 05:34:00;;;;;;;20.70;14.87;;;8.50;99.90;;;;;;4971887;28;20464;-49
2022/04/22 05:36:27;;;;;;;23.70;18.23;;;8.60;99.90;;;;;;4994002;28;20448;-52
2022/04/22 05:38:55;;;;;;;21.10;17.03;;;8.70;99.90;;;;;;4993912;28;20540;-50
2022/04/22 05:41:22;;;;;;;19.57;16.33;;;8.70;99.90;;;;;;4993952;28;20444;-50
2022/04/22 05:43:49;;;;;;;20.50;18.27;;;8.70;99.90;;;;;;4994099;28;20475;-49
2022/04/22 05:46:17;;;;;;;21.80;17.00;;;8.80;99.90;;;;;;4994079;28;20484;-49
2022/04/22 05:48:45;;;;;;;22.60;17.40;;;8.80;99.90;;;;;;4994183;28;20835;-49
2022/04/22 05:51:12;;;;;;;19.80;16.77;;;8.90;99.90;;;;;;4994137;28;20452;-49
2022/04/22 05:53:44;;;;;;;18.43;15.10;;;8.90;99.90;;;;;;4994026;28;20551;-51
2022/04/22 05:56:11;;;;;;;24.37;17.87;;;8.90;99.90;;;;;;4993897;28;20455;-49
2022/04/22 05:58:39;;;;;;;22.87;17.90;;;8.90;99.90;;;;;;4994092;28;20558;-51
2022/04/22 06:01:06;;;;;;;21.27;19.07;;;8.90;99.90;;;;;;4994044;28;20495;-49
2022/04/22 06:03:35;;;;;;;26.23;18.80;;;9.00;99.90;;;;;;4993521;28;20506;-52
2022/04/22 06:06:02;;;;;;;23.57;18.50;;;9.20;99.90;;;;;;4993969;28;20519;-51
2022/04/22 06:11:13;;;;;;;25.70;19.97;;;9.20;99.90;;;;;;4993779;28;20548;-51
2022/04/22 06:13:41;;;;;;;25.17;19.40;;;9.20;99.90;;;;;;4993656;28;20455;-52
2022/04/22 06:16:08;;;;;;;21.23;17.90;;;9.20;99.90;;;;;;4993527;28;20459;-49
2022/04/22 06:18:36;;;;;;;23.73;19.00;;;9.20;99.90;;;;;;4993722;28;20559;-49
2022/04/22 06:21:04;;;;;;;21.60;18.00;;;9.30;99.90;;;;;;4993709;28;20472;-49
2022/04/22 06:23:31;;;;;;;22.80;19.00;;;9.30;99.90;;;;;;4993471;28;20451;-50
2022/04/22 06:25:58;;;;;;;23.30;19.07;;;9.50;99.90;;;;;;4993635;28;20532;-50
2022/04/22 06:28:25;;;;;;;25.10;20.00;;;9.50;99.90;;;;;;4996223;28;20471;-49
2022/04/22 06:30:52;;;;;;;24.13;20.50;;;9.40;99.90;;;;;;4997201;28;20448;-49
2022/04/22 06:33:20;;;;;;;26.63;20.73;;;9.40;99.90;;;;;;4996965;28;20472;-50
2022/04/22 06:35:49;;;;;;;22.70;18.33;;;9.50;99.90;;;;;;4997462;28;20451;-51
2022/04/22 06:38:18;;;;;;;22.60;19.70;;;;;;;;;;4997156;28;20478;-51
2022/04/22 06:46:17;;;;;;;25.67;19.80;;;9.60;99.90;;;;;;4997188;28;20559;-51
2022/04/22 06:48:45;;;;;;;24.07;21.47;;;9.60;99.90;;;;;;4996955;28;20483;-51
2022/04/22 06:51:16;;;;;;;25.13;20.97;;;9.60;99.90;;;;;;4997214;28;20887;-51
2022/04/22 06:53:44;;;;;;;26.50;20.10;;;9.60;99.90;;;;;;4997225;28;20472;-51
2022/04/22 06:56:13;;;;;;;23.33;20.13;;;9.70;99.90;;;;;;4996690;28;20513;-51
2022/04/22 06:58:41;;;;;;;27.10;20.30;;;9.60;99.90;;;;;;4996704;28;20967;-51
2022/04/22 07:01:09;;;;;;;29.87;20.77;;;9.70;99.90;;;;;;4996911;28;20487;-51
2022/04/22 07:03:37;;;;;;;24.67;20.17;;;9.80;99.90;;;;;;4997166;28;20460;-51
2022/04/22 07:06:04;;;;;;;26.17;19.47;;;10.10;99.90;;;;;;4996637;28;20986;-51
2022/04/22 07:08:33;;;;;;;25.47;19.83;;;10.20;99.90;;;;;;4996533;28;20452;-51
2022/04/22 07:11:03;;;;;;;25.70;20.30;;;10.30;99.90;;;;;;4996922;28;20432;-51
2022/04/22 07:13:31;;;;;;;22.07;18.70;;;10.30;99.90;;;;;;4996484;28;20927;-51
2022/04/22 07:16:00;;;;;;;24.37;20.17;;;10.40;99.90;;;;;;4996523;28;20458;-51
2022/04/22 07:18:28;;;;;;;20.90;18.70;;;10.60;99.90;;;;;;4996799;28;20507;-52
2022/04/22 07:20:55;;;;;;;23.53;21.03;;;10.70;99.90;;;;;;4996325;28;20935;-49
2022/04/22 07:23:23;;;;;;;21.43;18.47;;;10.50;99.90;;;;;;4996441;28;21017;-49
2022/04/22 07:25:52;;;;;;;24.67;19.10;;;10.50;99.90;;;;;;4996044;28;20858;-50
2022/04/22 07:28:20;;;;;;;23.23;19.00;;;10.80;99.90;;;;;;4996348;28;20471;-52
2022/04/22 07:30:50;;;;;;;24.20;19.63;;;10.80;99.90;;;;;;4996254;28;21001;-52
2022/04/22 07:33:17;;;;;;;22.10;18.93;;;10.80;99.90;;;;;;4996200;28;20840;-50
2022/04/22 07:35:45;;;;;;;21.40;18.30;;;11.00;99.90;;;;;;4996392;28;20452;-50
2022/04/22 07:38:13;;;;;;;28.57;20.27;;;11.00;99.90;;;;;;4995614;28;20480;-50
2022/04/22 07:40:43;;;;;;;23.53;18.90;;;10.90;99.90;;;;;;4995432;28;20543;-50
2022/04/22 07:48:44;;;;;;;26.27;20.33;;;10.80;99.90;;;;;;4996186;28;20475;-50
2022/04/22 07:51:17;;;;;;;21.97;19.30;;;10.90;99.90;;;;;;4995911;28;20953;-50
2022/04/22 07:53:44;;;;;;;22.90;18.90;;;11.00;99.90;;;;;;4996133;28;20448;-50
2022/04/22 07:56:11;;;;;;;25.53;21.53;;;10.80;99.90;;;;;;4996033;28;20456;-50
2022/04/22 07:58:40;;;;;;;26.70;21.33;;;10.70;99.90;;;;;;4995782;28;20472;-50
2022/04/22 08:01:08;;;;;;;24.43;19.83;;;10.80;99.90;;;;;;4995856;28;20961;-50
2022/04/22 08:03:36;;;;;;;26.80;21.07;;;10.90;99.90;;;;;;4995892;28;20455;-50
2022/04/22 08:06:03;;;;;;;25.13;19.90;;;11.00;99.90;;;;;;4995945;28;20487;-50
2022/04/22 08:08:31;;;;;;;22.37;18.63;;;11.00;99.90;;;;;;4995799;28;20490;-50
2022/04/22 08:10:58;;;;;;;25.70;20.60;;;11.20;99.90;;;;;;4995728;28;20510;-51
2022/04/22 08:13:26;;;;;;;25.90;21.20;;;11.60;99.90;;;;;;4995878;28;20527;-51
2022/04/22 08:15:54;;;;;;;27.17;20.47;;;12.10;99.90;;;;;;4995807;28;20935;-50
2022/04/22 08:18:22;;;;;;;22.73;19.17;;;12.70;99.90;;;;;;4995332;28;20468;-51
2022/04/22 08:20:49;;;;;;;23.73;18.80;;;13.60;99.90;;;;;;4995616;28;20562;-50
2022/04/22 08:23:20;;;;;;;20.80;16.93;;;14.30;99.40;;;;;;4995194;28;20459;-51
2022/04/22 08:25:47;;;;;;;20.03;17.80;;;15.00;97.90;;;;;;4995051;28;20530;-51
2022/04/22 08:28:14;;;;;;;22.57;18.07;;;15.80;96.90;;;;;;4995239;28;20503;-51
2022/04/22 08:30:41;;;;;;;20.40;18.23;;;16.40;94.70;;;;;;4995469;28;20480;-51
2022/04/22 08:33:10;;;;;;;20.20;16.93;;;16.60;93.40;;;;;;4995095;28;20486;-50
2022/04/22 08:35:37;;;;;;;20.37;17.40;;;16.90;93.30;;;;;;4995405;28;20435;-50
2022/04/22 08:38:06;;;;;;;20.57;18.40;;;16.20;92.50;;;;;;4994901;28;20880;-50
2022/04/22 08:40:37;;;;;;;19.30;17.00;;;15.60;93.60;;;;;;4995100;28;20463;-50
2022/04/22 08:43:05;;;;;;;17.13;15.27;;;16.00;93.00;;;;;;4994902;28;20916;-50
2022/04/22 08:45:33;;;;;;;17.93;16.20;;;16.70;93.50;;;;;;4994838;28;20484;-50
2022/04/22 08:50:51;;;;;;;17.00;15.20;;;16.50;93.50;;;;;;4994616;28;20411;-52
2022/04/22 08:53:23;;;;;;;19.07;17.07;;;17.50;92.60;;;;;;4994835;28;20444;-51
2022/04/22 08:55:55;;;;;;;17.37;15.70;;;18.40;90.50;;;;;;4994564;28;20511;-51
2022/04/22 08:58:25;;;;;;;17.47;15.63;;;18.10;88.40;;;;;;4995048;28;20559;-51
2022/04/22 09:00:53;;;;;;;17.70;15.90;;;18.70;88.10;;;;;;4994602;28;20456;-52
2022/04/22 09:03:21;;;;;;;18.70;16.80;;;18.90;88.50;;;;;;4994833;28;20463;-52
2022/04/22 09:05:50;;;;;;;16.70;14.80;;;;;;;;;;4994863;28;20488;-52
2022/04/22 09:08:19;;;;;;;17.63;15.93;;;19.20;85.30;;;;;;4994655;28;20479;-52
2022/04/22 09:10:53;;;;;;;17.43;15.73;;;19.00;85.50;;;;;;4994751;28;20554;-52
2022/04/22 09:13:26;;;;;;;18.33;16.50;;;19.30;85.20;;;;;;4994761;28;20847;-52
2022/04/22 09:15:54;;;;;;;17.80;16.00;;;19.50;83.80;;;;;;4994431;28;20436;-52
2022/04/22 09:18:24;;;;;;;16.90;15.20;;;19.70;82.80;;;;;;4994141;28;20476;-49
2022/04/22 09:20:56;;;;;;;16.90;14.50;;;20.00;81.90;;;;;;4993880;28;20539;-50
2022/04/22 09:23:32;;;;;;;17.37;14.60;;;19.90;79.20;;;;;;4994397;28;20846;-52
2022/04/22 09:25:59;;;;;;;16.40;14.90;;;19.60;82.20;;;;;;4994289;28;20492;-52
2022/04/22 09:28:27;;;;;;;15.73;14.20;;;20.10;80.00;;;;;;4994422;28;20476;-52
2022/04/22 09:30:58;;;;;;;16.27;14.87;;;19.20;79.90;;;;;;4994418;28;20456;-50
2022/04/22 09:33:25;;;;;;;17.27;15.57;;;19.30;81.80;;;;;;4992811;28;21041;-50
2022/04/22 09:44:51;;;;;;;16.73;14.93;;;19.10;80.10;;;;;;4993877;28;20488;-51
2022/04/22 09:47:19;;;;;;;17.70;15.90;;;19.30;81.10;;;;;;4993720;28;20571;-51
2022/04/22 09:49:47;;;;;;;16.00;13.90;;;19.20;78.90;;;;;;4994004;28;20448;-50
2022/04/22 09:52:15;;;;;;;19.07;16.63;;;20.00;79.90;;;;;;4994154;28;20460;-51
2022/04/22 09:54:57;;;;;;;16.73;15.13;;;20.50;76.80;;;;;;4993780;28;20531;-50
2022/04/22 09:57:24;;;;;;;16.10;14.40;;;21.00;75.60;;;;;;4993897;28;20440;-51
2022/04/22 09:59:52;;;;;;;15.70;13.90;;;20.80;74.60;;;;;;4994081;28;20452;-51
2022/04/22 10:02:24;;;;;;;16.97;14.77;;;20.70;77.70;;;;;;4993300;28;20456;-51
2022/04/22 10:04:53;;;;;;;18.07;15.90;;;20.60;75.20;;;;;;4994043;28;20447;-51
2022/04/22 10:07:26;;;;;;;16.77;15.23;;;20.60;76.70;;;;;;4993697;28;20487;-51
2022/04/22 10:09:55;;;;;;;15.93;14.37;;;20.80;76.10;;;;;;4993635;28;20436;-51
2022/04/22 10:12:24;;;;;;;15.50;14.00;;;21.20;74.80;;;;;;4993886;28;20534;-50
2022/04/22 10:14:54;;;;;;;16.00;14.33;;;20.80;72.30;;;;;;4993510;28;20459;-50
2022/04/22 10:17:22;;;;;;;14.93;13.43;;;21.40;74.60;;;;;;4993452;28;20444;-50
2022/04/22 10:19:50;;;;;;;14.93;13.43;;;22.00;71.70;;;;;;4993649;28;20451;-51
2022/04/22 10:22:19;;;;;;;14.47;13.00;;;21.50;71.40;;;;;;4993405;28;20681;-51
2022/04/22 10:24:50;;;;;;;14.33;13.03;;;21.20;71.20;;;;;;4993712;28;20571;-55
2022/04/22 10:27:18;;;;;;;14.10;12.87;;;21.40;71.00;;;;;;4993407;28;20559;-51
2022/04/22 10:29:46;;;;;;;16.00;13.40;;;21.10;72.40;;;;;;4993743;28;20511;-51
2022/04/22 10:32:14;;;;;;;14.83;13.00;;;21.00;71.30;;;;;;4993805;28;20458;-51
2022/04/22 10:34:42;;;;;;;14.73;13.23;;;20.80;69.10;;;;;;4993328;28;20567;-51
2022/04/22 10:37:19;;;;;;;15.83;14.30;;;19.70;71.10;;;;;;4993651;28;20444;-51
2022/04/22 10:39:52;;;;;;;15.40;13.80;;;18.90;73.50;;;;;;4993698;28;20448;-51
2022/04/22 10:42:20;;;;;;;15.10;13.60;;;19.00;76.10;;;;;;4993401;28;20447;-51
2022/04/22 10:47:44;;;;;;;14.67;13.00;;;19.60;75.30;;;;;;4993494;28;20486;-51
2022/04/22 10:50:31;;;;;;;14.80;13.30;;;20.60;72.50;;;;;;4993751;28;20519;-51
2022/04/22 10:53:03;;;;;;;14.13;12.73;;;20.70;71.80;;;;;;4993682;28;20543;-51
2022/04/22 10:55:34;;;;;;;13.60;12.20;;;20.40;71.30;;;;;;4993305;28;20545;-51
2022/04/22 10:58:24;;;;;;;15.00;13.57;;;20.20;71.80;;;;;;4993205;28;20975;-51
2022/04/22 11:00:53;;;;;;;15.53;14.07;;;20.30;72.20;;;;;;4990502;28;20459;-51
2022/04/22 11:03:23;;;;;;;15.83;14.30;;;21.00;74.50;;;;;;4993473;28;20479;-51
2022/04/22 11:05:52;;;;;;;13.87;12.47;;;21.50;70.90;;;;;;4993678;28;20483;-51
2022/04/22 11:08:29;;;;;;;15.37;13.40;;;22.00;71.10;;;;;;4993244;28;20478;-51
2022/04/22 11:11:15;;;;;;;16.37;14.67;;;22.10;71.30;;;;;;4993102;28;20788;-51
2022/04/22 11:13:49;;;;;;;15.57;13.97;;;22.30;69.80;;;;;;4994030;28;20486;-51
2022/04/22 11:16:24;;;;;;;15.60;14.03;;;21.80;69.00;;;;;;4996623;28;20428;-51
2022/04/22 11:19:09;;;;;;;15.40;13.87;;;21.50;70.70;;;;;;4996754;28;20876;-51
2022/04/22 11:21:43;;;;;;;16.07;14.47;;;21.60;70.00;;;;;;4996814;28;20428;-52
2022/04/22 11:24:14;;;;;;;16.40;14.70;;;22.10;69.10;;;;;;4996763;28;20455;-51
2022/04/22 11:26:42;;;;;;;16.47;14.77;;;21.80;69.10;;;;;;4996237;28;20524;-52
2022/04/22 11:29:10;;;;;;;15.23;13.70;;;22.20;72.30;;;;;;4996564;28;20476;-52
2022/04/22 11:31:38;;;;;;;15.13;13.40;;;22.60;67.00;;;;;;4996315;28;20455;-52
2022/04/22 11:34:08;;;;;;;14.77;13.20;;;21.80;68.20;;;;;;4996176;28;20559;-52
2022/04/22 11:36:44;;;;;;;14.90;13.50;;;22.00;67.60;;;;;;4996530;28;20454;-52
2022/04/22 11:39:17;;;;;;;15.43;13.13;;;22.40;70.80;;;;;;4996086;28;20996;-51
2022/04/22 11:41:57;;;;;;;15.03;12.87;;;21.60;67.60;;;;;;4996121;28;20479;-51
2022/04/22 11:44:25;;;;;;;16.30;14.70;;;21.10;69.40;;;;;;4996460;28;20794;-51
2022/04/22 11:46:52;;;;;;;15.33;13.83;;;21.70;68.50;;;;;;4996010;28;20494;-51
2022/04/22 11:49:20;;;;;;;13.43;12.23;;;22.50;68.90;;;;;;4996314;28;20471;-51
2022/04/22 11:51:53;;;;;;;14.77;13.30;;;22.60;69.50;;;;;;4996144;28;20487;-51
2022/04/22 11:54:25;;;;;;;14.57;13.07;;;22.90;66.50;;;;;;4996342;28;20813;-51
2022/04/22 11:56:54;;;;;;;14.03;12.73;;;21.50;65.40;;;;;;4996298;28;20502;-51
2022/04/22 11:59:22;;;;;;;14.90;13.40;;;22.10;68.00;;;;;;4995840;28;20460;-51
2022/04/22 12:10:12;;;;;;;15.50;12.23;;;22.10;66.50;;;;;;4995671;28;20416;-51
2022/04/22 12:12:50;;;;;;;13.30;12.10;;;22.30;66.30;;;;;;4995601;28;20605;-52
2022/04/22 12:15:19;;;;;;;13.07;11.87;;;22.20;65.20;;;;;;4995820;28;20463;-50
2022/04/22 12:17:46;;;;;;;13.20;11.67;;;22.60;64.50;;;;;;4995626;28;20479;-51
2022/04/22 12:20:15;;;;;;;13.93;12.47;;;22.10;63.90;;;;;;4995709;28;20463;-51
2022/04/22 12:22:42;;;;;;;14.23;12.83;;;21.80;65.70;;;;;;4995760;28;20456;-51
2022/04/22 12:25:10;;;;;;;12.03;10.93;;;22.00;66.70;;;;;;4994584;28;20456;-51
2022/04/22 12:27:38;;;;;;;13.43;12.23;;;22.50;65.00;;;;;;4995470;28;20491;-51
2022/04/22 12:30:08;;;;;;;13.83;12.43;;;;;;;;;;4995652;28;20538;-50
2022/04/22 12:32:36;;;;;;;13.13;11.83;;;20.40;65.20;;;;;;4995175;28;20452;-51
2022/04/22 12:35:14;;;;;;;13.90;12.50;;;20.20;66.80;;;;;;4994933;28;20494;-51
2022/04/22 12:37:46;;;;;;;14.00;12.70;;;20.70;69.40;;;;;;4995034;28;20471;-51
2022/04/22 12:40:15;;;;;;;14.10;12.80;;;21.00;65.00;;;;;;4995403;28;20506;-51
2022/04/22 12:42:42;;;;;;;16.03;13.60;;;20.80;66.50;;;;;;4995177;28;20887;-51
2022/04/22 12:53:42;;;;;;;11.33;10.33;;;22.70;65.70;;;;;;4994772;28;20489;-51
2022/04/22 12:56:10;;;;;;;13.97;12.50;;;23.10;64.40;;;;;;4994838;28;20466;-51
2022/04/22 12:58:53;;;;;;;14.77;12.20;;;22.40;65.30;;;;;;4994735;28;20509;-51
2022/04/22 13:01:25;;;;;;;12.70;11.40;;;22.50;63.70;;;;;;4995071;28;20460;-51
2022/04/22 13:03:52;;;;;;;12.00;10.80;;;22.70;62.10;;;;;;4994896;28;20431;-51
2022/04/22 13:06:39;;;;;;;12.40;11.30;;;22.60;62.00;;;;;;4994408;28;20542;-51
2022/04/22 13:09:07;;;;;;;15.77;12.03;;;23.30;62.20;;;;;;4994575;28;20917;-51
2022/04/22 13:11:35;;;;;;;11.47;10.33;;;22.40;60.20;;;;;;4994005;28;20458;-51
2022/04/22 13:14:02;;;;;;;20.33;11.80;;;22.60;63.20;;;;;;4994533;28;20957;-51
2022/04/22 13:16:31;;;;;;;12.60;11.40;;;22.80;60.00;;;;;;4994629;28;20459;-51
2022/04/22 13:18:59;;;;;;;12.73;11.63;;;22.90;59.50;;;;;;4994276;28;20476;-51
2022/04/22 13:21:27;;;;;;;13.03;11.83;;;21.90;59.40;;;;;;4994671;28;20507;-51
2022/04/22 13:23:54;;;;;;;12.63;11.33;;;21.40;62.50;;;;;;4994514;28;20452;-51
2022/04/22 13:26:22;;;;;;;18.07;13.93;;;21.60;63.20;;;;;;4994344;28;20942;-51
2022/04/22 13:28:50;;;;;;;14.60;13.10;;;21.60;61.50;;;;;;4994481;28;20476;-52
2022/04/22 13:31:17;;;;;;;13.77;11.63;;;21.60;61.40;;;;;;4994801;28;20459;-51
2022/04/22 13:33:49;;;;;;;11.57;10.47;;;21.30;62.70;;;;;;4994064;28;20566;-51
2022/04/22 13:36:17;;;;;;;12.30;11.10;;;21.70;62.90;;;;;;4994142;28;20472;-51
2022/04/22 13:38:44;;;;;;;12.87;11.67;;;22.00;62.00;;;;;;4994083;28;20554;-50
2022/04/22 13:41:12;;;;;;;12.80;11.60;;;21.90;62.50;;;;;;4994287;28;20889;-51
2022/04/22 13:43:39;;;;;;;12.67;11.50;;;21.60;62.80;;;;;;4993926;28;20792;-50
2022/04/22 13:54:22;;;;;;;12.20;11.10;;;22.00;64.20;;;;;;4994063;28;20408;-51
2022/04/22 13:56:49;;;;;;;12.50;11.30;;;21.70;61.40;;;;;;4994144;28;20563;-51
2022/04/22 13:59:17;;;;;;;12.77;11.47;;;20.90;61.30;;;;;;4993737;28;20467;-50
2022/04/22 14:01:44;;;;;;;13.43;11.90;;;20.70;61.30;;;;;;4993886;28;20451;-51
2022/04/22 14:04:12;;;;;;;12.67;11.37;;;20.60;62.00;;;;;;4993744;28;20886;-51